Time;durP1;ratioP1;P1;durP2;ratioP2;P2;SDS_P1;SDS_P2;PMS_P1;PMS_P2;Temp;Humidity;BMP_temperature;BMP_pressure;BME280_temperature;BME280_humidity;BME280_pressure;Samples;Min_cycle;Max_cycle;Signal;HPM_P1;HPM_P2
2021/04/06 00:00:48;;;;;;;;;;;;;;;;;;7422004;40;1094;-21
2021/04/06 00:06:09;;;;;;;;;;;;;;;;;;7421777;40;1878;-23
2021/04/06 00:11:29;;;;;;;;;;;;;;;;;;7421874;40;1012;-23
2021/04/06 00:16:50;;;;;;;;;;;;;;;;;;7421977;40;1110;-23
2021/04/06 00:22:12;;;;;;;;;;;;;;;;;;7421536;40;1174;-22
2021/04/06 00:27:41;;;;;;;;;;;;;;;;;;7421663;40;1311;-23
2021/04/06 00:33:04;;;;;;;;;;;;;;;;;;7420304;40;1232;-23
2021/04/06 00:38:26;;;;;;;;;;;;;;;;;;7419875;40;1191;-22
2021/04/06 00:43:47;;;;;;;;;;;;;;;;;;7419999;40;1874;-23
2021/04/06 00:49:07;;;;;;;;;;;;;;;;;;7420035;40;1038;-21
2021/04/06 00:54:28;;;;;;;;;;;;;;;;;;7420512;40;1244;-23
2021/04/06 01:00:07;;;;;;;;;;;;;;;;;;7421358;40;1118;-22
2021/04/06 01:05:28;;;;;;;;;;;;;;;;;;7421021;40;1956;-23
2021/04/06 01:10:50;;;;;;;;;;;;;;;;;;7421152;40;977;-22
2021/04/06 01:16:10;;;;;;;;;;;;;;;;;;7421119;40;1021;-22
2021/04/06 01:21:31;;;;;;;;;;;;;;;;;;7420879;40;1230;-21
2021/04/06 01:26:51;;;;;;;;;;;;;;;;;;7420784;40;1955;-22
2021/04/06 01:32:12;;;;;;;;;;;;;;;;;;7420829;40;1097;-22
2021/04/06 01:37:33;;;;;;;;;;;;;;;;;;7420711;40;1133;-21
2021/04/06 01:42:53;;;;;;;;;;;;;;;;;;7420605;40;1952;-23
2021/04/06 01:48:17;;;;;;;;;;;;;;;;;;7423274;40;1059;-23
2021/04/06 01:53:39;;;;;;;;;;;;;;;;;;7423684;40;1099;-20
2021/04/06 01:59:04;;;;;;;;;;;;;;;;;;7423606;40;1029;-22
2021/04/06 02:04:26;;;;;;;;;;;;;;;;;;7423335;40;1924;-23
2021/04/06 02:09:46;;;;;;;;;;;;;;;;;;7423522;40;1145;-22
2021/04/06 02:15:08;;;;;;;;;;;;;;;;;;7423203;40;1044;-23
2021/04/06 02:20:28;;;;;;;;;;;;;;;;;;7423318;40;1132;-22
2021/04/06 02:25:50;;;;;;;;;;;;;;;;;;7423048;40;1934;-22
2021/04/06 02:31:12;;;;;;;;;;;;;;;;;;7422951;40;1333;-21
2021/04/06 02:36:32;;;;;;;;;;;;;;;;;;7423006;40;1018;-23
2021/04/06 02:41:53;;;;;;;;;;;;;;;;;;7423084;40;1195;-22
2021/04/06 02:47:14;;;;;;;;;;;;;;;;;;7422781;40;1923;-22
2021/04/06 02:52:35;;;;;;;;;;;;;;;;;;7422880;40;1048;-23
2021/04/06 02:57:55;;;;;;;;;;;;;;;;;;7422383;40;1120;-23
2021/04/06 03:03:20;;;;;;;;;;;;;;;;;;7422734;40;1978;-24
2021/04/06 03:08:41;;;;;;;;;;;;;;;;;;7422698;40;1088;-24
2021/04/06 03:14:04;;;;;;;;;;;;;;;;;;7422195;40;1526;-23
2021/04/06 03:19:28;;;;;;;;;;;;;;;;;;7422550;40;1070;-23
2021/04/06 03:24:49;;;;;;;;;;;;;;;;;;7422339;40;1923;-22
2021/04/06 03:30:10;;;;;;;;;;;;;;;;;;7422492;40;1048;-21
2021/04/06 03:35:31;;;;;;;;;;;;;;;;;;7422223;40;1251;-22
2021/04/06 03:40:51;;;;;;;;;;;;;;;;;;7422257;40;1027;-22
2021/04/06 03:46:12;;;;;;;;;;;;;;;;;;7422171;40;1939;-22
2021/04/06 03:51:32;;;;;;;;;;;;;;;;;;7422125;40;1119;-24
2021/04/06 03:56:52;;;;;;;;;;;;;;;;;;7422042;40;1218;-22
2021/04/06 04:02:13;;;;;;;;;;;;;;;;;;7422095;40;1089;-23
2021/04/06 04:07:34;;;;;;;;;;;;;;;;;;7421530;40;1929;-22
2021/04/06 04:12:54;;;;;;;;;;;;;;;;;;7421765;40;1137;-22
2021/04/06 04:18:15;;;;;;;;;;;;;;;;;;7421856;40;993;-22
2021/04/06 04:23:35;;;;;;;;;;;;;;;;;;7421539;40;1880;-23
2021/04/06 04:29:10;;;;;;;;;;;;;;;;;;7421575;40;1042;-21
2021/04/06 04:34:30;;;;;;;;;;;;;;;;;;7405753;40;1130;-22
2021/04/06 04:39:51;;;;;;;;;;;;;;;;;;7400730;40;1079;-22
2021/04/06 04:45:22;;;;;;;;;;;;;;;;;;7400670;40;1907;-20
2021/04/06 04:50:42;;;;;;;;;;;;;;;;;;7400498;40;1125;-23
2021/04/06 04:56:03;;;;;;;;;;;;;;;;;;7400530;40;1011;-22
2021/04/06 05:01:23;;;;;;;;;;;;;;;;;;7400494;40;1016;-22
2021/04/06 05:06:44;;;;;;;;;;;;;;;;;;7400318;40;1902;-25
2021/04/06 05:12:05;;;;;;;;;;;;;;;;;;7400356;40;1038;-24
2021/04/06 05:17:25;;;;;;;;;;;;;;;;;;7408286;40;1128;-22
2021/04/06 05:22:46;;;;;;;;;;;;;;;;;;7419583;40;1125;-24
2021/04/06 05:28:06;;;;;;;;;;;;;;;;;;7420197;40;1074;-23
2021/04/06 05:33:27;;;;;;;;;;;;;;;;;;7420403;40;1274;-22
2021/04/06 05:38:47;;;;;;;;;;;;;;;;;;7420428;40;1017;-21
2021/04/06 05:44:08;;;;;;;;;;;;;;;;;;7419948;40;1886;-22
2021/04/06 05:49:31;;;;;;;;;;;;;;;;;;7418305;40;1118;-22
2021/04/06 05:54:51;;;;;;;;;;;;;;;;;;7418915;40;1034;-22
2021/04/06 06:00:12;;;;;;;;;;;;;;;;;;7420227;40;1038;-23
2021/04/06 06:05:32;;;;;;;;;;;;;;;;;;7419998;40;1870;-23
2021/04/06 06:11:03;;;;;;;;;;;;;;;;;;7420049;40;990;-23
2021/04/06 06:16:25;;;;;;;;;;;;;;;;;;7417539;40;941;-23
2021/04/06 06:21:46;;;;;;;;;;;;;;;;;;7169016;39;10000643;-21
2021/04/06 06:27:24;;;;;;;;;;;;;;;;;;7401913;40;2236;-23
2021/04/06 06:32:45;;;;;;;;;;;;;;;;;;7398310;40;1146;-23
2021/04/06 06:38:16;;;;;;;;;;;;;;;;;;7399223;40;1040;-23
2021/04/06 06:43:36;;;;;;;;;;;;;;;;;;7399076;40;1967;-23
2021/04/06 06:48:59;;;;;;;;;;;;;;;;;;7399020;40;999;-23
2021/04/06 06:54:34;;;;;;;;;;;;;;;;;;7399179;40;941;-22
2021/04/06 07:00:02;;;;;;;;;;;;;;;;;;7399167;40;1029;-24
2021/04/06 07:05:23;;;;;;;;;;;;;;;;;;7401839;40;1949;-21
2021/04/06 07:10:45;;;;;;;;;;;;;;;;;;7401793;40;1027;-23
2021/04/06 07:16:09;;;;;;;;;;;;;;;;;;7400910;40;1110;-22
2021/04/06 07:21:30;;;;;;;;;;;;;;;;;;7400242;40;1279;-23
2021/04/06 07:26:51;;;;;;;;;;;;;;;;;;7413091;40;1943;-22
2021/04/06 07:32:13;;;;;;;;;;;;;;;;;;7421688;40;1099;-21
2021/04/06 07:37:38;;;;;;;;;;;;;;;;;;7421862;40;972;-22
2021/04/06 07:42:58;;;;;;;;;;;;;;;;;;7421205;40;1038;-23
2021/04/06 07:48:38;;;;;;;;;;;;;;;;;;7420835;40;981;-22
2021/04/06 07:54:09;;;;;;;;;;;;;;;;;;7421594;40;1033;-23
2021/04/06 07:59:29;;;;;;;;;;;;;;;;;;7420586;40;1237;-23
2021/04/06 08:04:50;;;;;;;;;;;;;;;;;;7421244;40;1870;-22
2021/04/06 08:24:31;;;;;;;;;;;;;;;;;;13046371;22;804705;-21
2021/04/06 08:47:37;;;;;;;;;;;;;;;;;;13048519;22;741425;-22
2021/04/06 08:52:57;;;;;;;;;;;;;;;;;;13078346;22;1908;-20
2021/04/06 08:58:18;;;;;;;;;;;;;;;;;;13078222;22;1112;-20
2021/04/06 09:03:39;;;;;;;;;;;;;;;;;;13077951;22;1000;-20
2021/04/06 09:08:59;;;;;;;;;;;;;;;;;;13077918;22;1060;-21
2021/04/06 09:14:20;;;;;;;;;;;;;;;;;;13054326;22;1860;-22
2021/04/06 09:19:40;;;;;;;;;;;;;;;;;;13078087;22;1083;-22
2021/04/06 09:25:12;;;;;;;;;;;;;;;;;;13077875;22;1009;-21
2021/04/06 09:30:37;;;;;;;;;;;;;;;;;;13076090;22;1048;-21
2021/04/06 09:35:59;;;;;;;;;;;;;;;;;;13075382;22;1902;-22
2021/04/06 09:41:25;;;;;;;;;;;;;;;;;;13076090;22;968;-22
2021/04/06 09:46:47;;;;;;;;;;;;;;;;;;13066264;22;1067;-21
2021/04/06 09:52:11;;;;;;;;;;;;;;;;;;13062721;22;1041;-21
2021/04/06 09:57:42;;;;;;;;;;;;;;;;;;13062338;22;976;-21
2021/04/06 10:03:07;;;;;;;;;;;;;;;;;;13061303;22;1021;-20
2021/04/06 10:08:29;;;;;;;;;;;;;;;;;;13061348;22;985;-22
2021/04/06 10:13:50;;;;;;;;;;;;;;;;;;13060255;22;1891;-22
2021/04/06 10:19:36;;;;;;;;;;;;;;;;;;13060991;22;976;-21
2021/04/06 10:24:58;;;;;;;;;;;;;;;;;;13021535;22;1106;-21
2021/04/06 10:30:30;;;;;;;;;;;;;;;;;;13060365;22;1044;-21
2021/04/06 10:35:59;;;;;;;;;;;;;;;;;;13060545;22;1900;-21
2021/04/06 10:41:24;;;;;;;;;;;;;;;;;;13059990;22;980;-22
2021/04/06 10:46:45;;;;;;;;;;;;;;;;;;13060938;22;1241;-22
2021/04/06 10:52:10;;;;;;;;;;;;;;;;;;13061786;22;924;-22
2021/04/06 10:57:32;;;;;;;;;;;;;;;;;;13059226;22;1009;-23
2021/04/06 11:03:15;;;;;;;;;;;;;;;;;;13060195;22;1056;-22
2021/04/06 11:08:38;;;;;;;;;;;;;;;;;;13060891;22;1080;-21
2021/04/06 11:14:04;;;;;;;;;;;;;;;;;;13058809;22;1905;-20
2021/04/06 11:19:28;;;;;;;;;;;;;;;;;;13059115;22;1106;-23
2021/04/06 11:24:51;;;;;;;;;;;;;;;;;;13059283;22;1046;-22
2021/04/06 11:30:12;;;;;;;;;;;;;;;;;;13060013;22;966;-21
2021/04/06 11:35:32;;;;;;;;;;;;;;;;;;13060908;22;1903;-22
2021/04/06 11:40:52;;;;;;;;;;;;;;;;;;13059609;22;1011;-21
2021/04/06 11:46:14;;;;;;;;;;;;;;;;;;13059241;22;1192;-22
2021/04/06 11:51:35;;;;;;;;;;;;;;;;;;13060050;22;993;-22
2021/04/06 11:56:56;;;;;;;;;;;;;;;;;;13036963;22;1918;-21
2021/04/06 12:02:17;;;;;;;;;;;;;;;;;;13060501;22;1045;-23
2021/04/06 12:07:37;;;;;;;;;;;;;;;;;;13060408;22;917;-21
2021/04/06 12:12:58;;;;;;;;;;;;;;;;;;13060159;22;1898;-23
2021/04/06 12:18:18;;;;;;;;;;;;;;;;;;13060280;22;1065;-22
2021/04/06 12:23:39;;;;;;;;;;;;;;;;;;13060234;22;886;-21
2021/04/06 12:29:02;;;;;;;;;;;;;;;;;;13058598;22;954;-21
2021/04/06 12:34:22;;;;;;;;;;;;;;;;;;13058233;22;1852;-21
2021/04/06 12:39:43;;;;;;;;;;;;;;;;;;13058309;22;895;-22
2021/04/06 12:45:08;;;;;;;;;;;;;;;;;;13058534;22;1150;-23
2021/04/06 12:50:29;;;;;;;;;;;;;;;;;;13058433;22;1276;-21
2021/04/06 12:55:49;;;;;;;;;;;;;;;;;;13057788;22;1853;-22
2021/04/06 13:01:10;;;;;;;;;;;;;;;;;;13058939;22;909;-22
2021/04/06 13:06:30;;;;;;;;;;;;;;;;;;13059302;22;1189;-22
2021/04/06 13:11:51;;;;;;;;;;;;;;;;;;13059589;22;937;-21
2021/04/06 13:17:11;;;;;;;;;;;;;;;;;;13058849;22;1860;-21
2021/04/06 13:22:32;;;;;;;;;;;;;;;;;;13062232;22;926;-22
2021/04/06 13:27:52;;;;;;;;;;;;;;;;;;13063419;22;1062;-23
2021/04/06 13:33:13;;;;;;;;;;;;;;;;;;13062844;22;1977;-22
2021/04/06 13:38:34;;;;;;;;;;;;;;;;;;13062097;22;940;-21
2021/04/06 13:43:59;;;;;;;;;;;;;;;;;;13060431;22;1182;-22
2021/04/06 13:49:21;;;;;;;;;;;;;;;;;;13061130;22;1028;-21
2021/04/06 13:54:41;;;;;;;;;;;;;;;;;;13061062;22;1904;-22
2021/04/06 14:00:04;;;;;;;;;;;;;;;;;;13060932;22;975;-20
2021/04/06 14:05:31;;;;;;;;;;;;;;;;;;13061083;22;1217;-21
2021/04/06 14:10:53;;;;;;;;;;;;;;;;;;13061720;22;953;-20
2021/04/06 14:16:13;;;;;;;;;;;;;;;;;;13062089;22;1911;-22
2021/04/06 14:21:34;;;;;;;;;;;;;;;;;;13062182;22;990;-22
2021/04/06 14:41:49;;;;;;;;;;;;;;;;;;7203435;39;10002214;-20
2021/04/06 14:47:10;;;;;;;;;;;;;;;;;;7453329;39;1975;-20
2021/04/06 14:52:31;;;;;;;;;;;;;;;;;;7453747;39;1046;-21
2021/04/06 14:57:52;;;;;;;;;;;;;;;;;;7455341;39;1045;-22
2021/04/06 15:03:12;;;;;;;;;;;;;;;;;;7455537;39;1120;-20
2021/04/06 15:08:33;;;;;;;;;;;;;;;;;;7455118;39;1869;-23
2021/04/06 15:13:54;;;;;;;;;;;;;;;;;;7455094;39;1231;-22
2021/04/06 15:19:17;;;;;;;;;;;;;;;;;;7454694;39;1202;-23
2021/04/06 15:24:41;;;;;;;;;;;;;;;;;;7455674;39;1044;-22
2021/04/06 15:30:01;;;;;;;;;;;;;;;;;;7447429;39;2382;-23
2021/04/06 15:35:22;;;;;;;;;;;;;;;;;;7434307;40;1042;-20
2021/04/06 15:40:43;;;;;;;;;;;;;;;;;;7425476;40;1250;-22
2021/04/06 15:46:04;;;;;;;;;;;;;;;;;;7432926;40;1610;-22
2021/04/06 15:51:24;;;;;;;;;;;;;;;;;;7440960;40;1315;-20
2021/04/06 15:56:46;;;;;;;;;;;;;;;;;;7435995;40;1118;-22
2021/04/06 16:02:06;;;;;;;;;;;;;;;;;;7428832;40;1326;-24
2021/04/06 16:07:26;;;;;;;;;;;;;;;;;;7439171;40;3173;-22
2021/04/06 16:12:48;;;;;;;;;;;;;;;;;;7440632;40;1046;-22
2021/04/06 16:18:08;;;;;;;;;;;;;;;;;;7440348;40;1021;-24
2021/04/06 16:23:32;;;;;;;;;;;;;;;;;;7429453;40;1130;-26
2021/04/06 16:28:53;;;;;;;;;;;;;;;;;;7430835;40;2940;-23
2021/04/06 16:34:16;;;;;;;;;;;;;;;;;;7430069;40;3041;-23
2021/04/06 16:39:37;;;;;;;;;;;;;;;;;;7425655;40;1176;-23
2021/04/06 16:44:58;;;;;;;;;;;;;;;;;;7436077;40;1076;-22
2021/04/06 16:50:18;;;;;;;;;;;;;;;;;;7439556;39;1889;-22
2021/04/06 16:55:39;;;;;;;;;;;;;;;;;;7440596;40;1013;-23
2021/04/06 17:01:00;;;;;;;;;;;;;;;;;;7439187;40;1025;-20
2021/04/06 17:06:24;;;;;;;;;;;;;;;;;;7439986;40;990;-22
2021/04/06 17:11:44;;;;;;;;;;;;;;;;;;7437063;40;1439;-23
2021/04/06 17:17:05;;;;;;;;;;;;;;;;;;7429138;40;1033;-23
2021/04/06 17:22:25;;;;;;;;;;;;;;;;;;7439605;40;994;-22
2021/04/06 17:27:46;;;;;;;;;;;;;;;;;;7439958;40;1886;-22
2021/04/06 17:33:08;;;;;;;;;;;;;;;;;;7428555;40;2943;-23
2021/04/06 17:38:29;;;;;;;;;;;;;;;;;;7437455;40;1136;-22
2021/04/06 17:43:50;;;;;;;;;;;;;;;;;;7439693;40;990;-22
2021/04/06 17:49:10;;;;;;;;;;;;;;;;;;7439355;40;1956;-25
2021/04/06 17:54:31;;;;;;;;;;;;;;;;;;7437516;40;1044;-26
2021/04/06 17:59:51;;;;;;;;;;;;;;;;;;7438342;40;1142;-23
2021/04/06 18:05:12;;;;;;;;;;;;;;;;;;7441102;40;989;-22
2021/04/06 18:10:33;;;;;;;;;;;;;;;;;;7440117;40;1885;-25
2021/04/06 18:15:53;;;;;;;;;;;;;;;;;;7437205;40;1049;-24
2021/04/06 18:21:14;;;;;;;;;;;;;;;;;;7438048;40;1057;-24
2021/04/06 18:26:34;;;;;;;;;;;;;;;;;;7419189;40;1281;-21
2021/04/06 18:31:56;;;;;;;;;;;;;;;;;;7425472;40;1117;-24
2021/04/06 18:37:16;;;;;;;;;;;;;;;;;;7430980;40;961;-22
2021/04/06 18:42:37;;;;;;;;;;;;;;;;;;7437966;40;1041;-23
2021/04/06 18:47:58;;;;;;;;;;;;;;;;;;7437351;40;1876;-21
2021/04/06 18:53:20;;;;;;;;;;;;;;;;;;7436581;40;1321;-23
2021/04/06 18:58:40;;;;;;;;;;;;;;;;;;7436853;40;1313;-22
2021/04/06 19:04:00;;;;;;;;;;;;;;;;;;7437388;40;1139;-22
2021/04/06 19:09:25;;;;;;;;;;;;;;;;;;7437307;40;1936;-23
2021/04/06 19:14:55;;;;;;;;;;;;;;;;;;7437370;39;1172;-21
2021/04/06 19:20:17;;;;;;;;;;;;;;;;;;7439296;40;1128;-21
2021/04/06 19:25:37;;;;;;;;;;;;;;;;;;7438721;40;927;-24
2021/04/06 19:30:59;;;;;;;;;;;;;;;;;;7439802;40;1866;-24
2021/04/06 19:36:19;;;;;;;;;;;;;;;;;;7440340;40;1097;-20
2021/04/06 19:41:41;;;;;;;;;;;;;;;;;;7436780;40;1149;-22
2021/04/06 19:47:01;;;;;;;;;;;;;;;;;;7427545;40;1882;-22
2021/04/06 19:52:21;;;;;;;;;;;;;;;;;;7427616;40;1096;-22
2021/04/06 19:57:42;;;;;;;;;;;;;;;;;;7434597;40;1127;-22
2021/04/06 20:03:02;;;;;;;;;;;;;;;;;;7419367;40;1055;-23
2021/04/06 20:08:23;;;;;;;;;;;;;;;;;;7418654;40;1931;-22
2021/04/06 20:13:43;;;;;;;;;;;;;;;;;;7416521;40;1188;-22
2021/04/06 20:19:04;;;;;;;;;;;;;;;;;;7417400;40;1042;-24
2021/04/06 20:24:25;;;;;;;;;;;;;;;;;;7417192;40;1039;-24
2021/04/06 20:29:46;;;;;;;;;;;;;;;;;;7417025;40;1931;-23
2021/04/06 20:35:07;;;;;;;;;;;;;;;;;;7420250;40;1227;-22
2021/04/06 20:40:27;;;;;;;;;;;;;;;;;;7425677;40;1163;-23
2021/04/06 20:45:47;;;;;;;;;;;;;;;;;;7419317;40;1033;-22
2021/04/06 20:51:09;;;;;;;;;;;;;;;;;;7428825;40;1949;-22
2021/04/06 20:56:29;;;;;;;;;;;;;;;;;;7443454;40;1273;-22
2021/04/06 21:01:51;;;;;;;;;;;;;;;;;;7443794;40;1031;-22
2021/04/06 21:07:12;;;;;;;;;;;;;;;;;;7443459;40;1937;-21
2021/04/06 21:12:32;;;;;;;;;;;;;;;;;;7442860;40;982;-23
2021/04/06 21:17:52;;;;;;;;;;;;;;;;;;7440785;40;1141;-20
2021/04/06 21:23:13;;;;;;;;;;;;;;;;;;7440729;40;1986;-22
2021/04/06 21:28:33;;;;;;;;;;;;;;;;;;7441127;40;1872;-20
2021/04/06 21:33:54;;;;;;;;;;;;;;;;;;7442984;40;993;-21
2021/04/06 21:39:14;;;;;;;;;;;;;;;;;;7442333;39;1269;-21
2021/04/06 21:44:35;;;;;;;;;;;;;;;;;;7442849;40;1067;-22
2021/04/06 21:49:55;;;;;;;;;;;;;;;;;;7442888;40;1935;-20
2021/04/06 21:55:16;;;;;;;;;;;;;;;;;;7442089;40;1126;-21
2021/04/06 22:00:37;;;;;;;;;;;;;;;;;;7441526;40;997;-21
2021/04/06 22:05:57;;;;;;;;;;;;;;;;;;7441755;40;986;-20
2021/04/06 22:11:17;;;;;;;;;;;;;;;;;;7443182;40;1935;-20
2021/04/06 22:16:37;;;;;;;;;;;;;;;;;;7442775;40;1173;-21
2021/04/06 22:21:58;;;;;;;;;;;;;;;;;;7442434;40;1117;-21
2021/04/06 22:27:19;;;;;;;;;;;;;;;;;;7442492;40;1919;-21
2021/04/06 22:32:39;;;;;;;;;;;;;;;;;;7442207;40;1099;-23
2021/04/06 22:38:00;;;;;;;;;;;;;;;;;;7442282;40;1295;-23
2021/04/06 22:43:21;;;;;;;;;;;;;;;;;;7442081;40;1122;-20
2021/04/06 22:48:41;;;;;;;;;;;;;;;;;;7442256;39;1874;-28
2021/04/06 22:54:02;;;;;;;;;;;;;;;;;;7444889;40;971;-24
2021/04/06 22:59:22;;;;;;;;;;;;;;;;;;7444560;40;1011;-22
2021/04/06 23:04:43;;;;;;;;;;;;;;;;;;7443209;40;1134;-21
2021/04/06 23:10:07;;;;;;;;;;;;;;;;;;7444729;40;1868;-20
2021/04/06 23:15:28;;;;;;;;;;;;;;;;;;7444986;40;1026;-24
2021/04/06 23:20:48;;;;;;;;;;;;;;;;;;7443889;40;1294;-22
2021/04/06 23:26:08;;;;;;;;;;;;;;;;;;7443530;40;1166;-21
2021/04/06 23:31:29;;;;;;;;;;;;;;;;;;7442358;40;1938;-21
2021/04/06 23:36:49;;;;;;;;;;;;;;;;;;7443911;40;2748;-22
2021/04/06 23:42:09;;;;;;;;;;;;;;;;;;7444689;40;1294;-21
2021/04/06 23:47:31;;;;;;;;;;;;;;;;;;7444444;40;1939;-21
2021/04/06 23:52:52;;;;;;;;;;;;;;;;;;7443773;40;2510;-21
2021/04/06 23:58:12;;;;;;;;;;;;;;;;;;7444369;40;996;-22
